Time;durP1;ratioP1;P1;durP2;ratioP2;P2;SDS_P1;SDS_P2;PMS_P1;PMS_P2;Temp;Humidity;BMP_temperature;BMP_pressure;BME280_temperature;BME280_humidity;BME280_pressure;Samples;Min_cycle;Max_cycle;Signal;HPM_P1;HPM_P2
2023/05/02 00:02:15;;;;;;;;;;;;;;;25.46;22.77;98166.09;5104382;28;19959;-85
2023/05/02 00:04:41;;;;;;;;;;;;;;;25.41;22.94;98167.38;5107014;28;20392;-85
2023/05/02 00:07:07;;;;;;;;;;;;;;;25.05;23.80;98168.72;5111621;28;19916;-85
2023/05/02 00:09:33;;;;;;;;;;;;;;;25.13;23.09;98165.31;5112125;28;19920;-85
2023/05/02 00:11:59;;;;;;;;;;;;;;;24.99;23.16;98159.22;5110159;28;19919;-85
2023/05/02 00:14:25;;;;;;;;;;;;;;;24.57;24.25;98158.19;5107630;28;19965;-85
2023/05/02 00:16:51;;;;;;;;;;;;;;;24.64;23.81;98158.03;5109896;28;20514;-85
2023/05/02 00:19:17;;;;;;;;;;;;;;;24.41;23.67;98161.72;5103137;28;19927;-85
2023/05/02 00:21:46;;;;;;;;;;;;;;;24.50;23.44;98155.53;5101778;28;19924;-85
2023/05/02 00:24:12;;;;;;;;;;;;;;;24.71;23.97;98158.63;5107785;28;19920;-85
2023/05/02 00:26:38;;;;;;;;;;;;;;;24.70;24.25;98157.06;5113243;28;19968;-85
2023/05/02 00:29:04;;;;;;;;;;;;;;;24.65;24.20;98154.78;5114561;28;19965;-85
2023/05/02 00:31:30;;;;;;;;;;;;;;;24.56;23.96;98156.59;5114538;28;19916;-85
2023/05/02 00:33:56;;;;;;;;;;;;;;;24.65;23.62;98165.22;5112078;28;19920;-85
2023/05/02 00:36:22;;;;;;;;;;;;;;;24.78;22.86;98157.72;5115241;28;19922;-85
2023/05/02 00:38:48;;;;;;;;;;;;;;;24.72;22.29;98159.44;5114512;28;19986;-85
2023/05/02 00:41:16;;;;;;;;;;;;;;;24.94;22.56;98157.75;5115108;28;19916;-85
2023/05/02 00:43:42;;;;;;;;;;;;;;;24.41;23.80;98158.16;5114320;28;19972;-85
2023/05/02 00:46:10;;;;;;;;;;;;;;;24.41;23.43;98169.38;5114795;28;19920;-85
2023/05/02 00:48:36;;;;;;;;;;;;;;;24.62;22.25;98169.69;5107967;28;20367;-84
2023/05/02 00:51:07;;;;;;;;;;;;;;;24.49;22.67;98171.59;5105906;28;20006;-85
2023/05/02 00:53:34;;;;;;;;;;;;;;;24.57;22.46;98173.03;5113468;28;19922;-85
2023/05/02 00:56:01;;;;;;;;;;;;;;;24.88;22.00;98179.13;5113850;28;20300;-85
2023/05/02 00:58:28;;;;;;;;;;;;;;;24.94;23.61;98168.19;5110301;28;20375;-85
2023/05/02 01:01:02;;;;;;;;;;;;;;;25.06;23.25;98170.31;5093744;28;20362;-84
2023/05/02 01:03:28;;;;;;;;;;;;;;;25.39;22.57;98174.69;5106311;28;20018;-85
2023/05/02 01:06:03;;;;;;;;;;;;;;;24.61;23.71;98181.34;5109692;28;19962;-85
2023/05/02 01:08:43;;;;;;;;;;;;;;;24.38;24.16;98175.84;5110398;28;19920;-85
2023/05/02 01:11:14;;;;;;;;;;;;;;;23.70;24.47;98170.78;5109372;28;20004;-85
2023/05/02 01:13:41;;;;;;;;;;;;;;;24.27;23.66;98176.06;5108308;28;19951;-85
2023/05/02 01:16:09;;;;;;;;;;;;;;;24.58;23.23;98183.00;5111011;28;19980;-85
2023/05/02 01:18:37;;;;;;;;;;;;;;;24.47;23.34;98176.84;5112030;28;19920;-85
2023/05/02 01:21:06;;;;;;;;;;;;;;;24.32;23.24;98180.41;5112012;28;19942;-85
2023/05/02 01:23:44;;;;;;;;;;;;;;;24.35;22.96;98179.53;5106555;28;19920;-85
2023/05/02 01:26:10;;;;;;;;;;;;;;;24.51;21.66;98176.75;5108210;28;19927;-85
2023/05/02 01:28:54;;;;;;;;;;;;;;;24.67;22.17;98171.19;5108470;28;19920;-85
2023/05/02 01:31:22;;;;;;;;;;;;;;;24.78;21.63;98166.16;5102041;28;20394;-85
2023/05/02 01:33:48;;;;;;;;;;;;;;;24.89;21.43;98166.69;5110017;28;20382;-85
2023/05/02 01:36:15;;;;;;;;;;;;;;;24.80;22.74;98166.50;5109746;28;19935;-85
2023/05/02 01:38:42;;;;;;;;;;;;;;;24.95;21.42;98155.72;5111453;28;20368;-85
2023/05/02 01:41:08;;;;;;;;;;;;;;;25.06;21.53;98159.06;5112293;28;19923;-84
2023/05/02 01:43:35;;;;;;;;;;;;;;;25.01;21.71;98166.00;5110402;28;19924;-84
2023/05/02 01:46:03;;;;;;;;;;;;;;;25.08;21.88;98167.84;5112078;28;20127;-85
2023/05/02 01:48:29;;;;;;;;;;;;;;;25.26;21.68;98177.41;5108463;28;19927;-84
2023/05/02 01:50:56;;;;;;;;;;;;;;;25.40;21.16;98171.44;5110911;28;19926;-85
2023/05/02 01:53:24;;;;;;;;;;;;;;;25.08;22.15;98165.03;5112190;28;19920;-85
2023/05/02 01:55:51;;;;;;;;;;;;;;;24.92;21.67;98163.00;5113009;28;19923;-85
2023/05/02 01:58:18;;;;;;;;;;;;;;;24.77;21.37;98161.75;5112469;28;19931;-85
2023/05/02 02:00:44;;;;;;;;;;;;;;;24.51;21.12;98166.31;5105599;28;20398;-85
2023/05/02 02:03:11;;;;;;;;;;;;;;;24.59;22.08;98167.75;5108898;28;19924;-85
2023/05/02 02:05:38;;;;;;;;;;;;;;;24.84;20.82;98167.22;5099454;28;20379;-85
2023/05/02 02:08:04;;;;;;;;;;;;;;;24.99;20.18;98174.06;5108970;28;20297;-85
2023/05/02 02:10:35;;;;;;;;;;;;;;;24.79;20.88;98169.72;5111070;28;19927;-85
2023/05/02 02:13:06;;;;;;;;;;;;;;;24.83;21.04;98167.66;5109096;28;19982;-85
2023/05/02 02:15:37;;;;;;;;;;;;;;;24.78;21.09;98168.16;5110353;28;19924;-85
2023/05/02 02:18:11;;;;;;;;;;;;;;;24.38;22.11;98173.03;5112659;28;19916;-85
2023/05/02 02:20:37;;;;;;;;;;;;;;;24.71;21.18;98174.72;5114073;28;20010;-85
2023/05/02 02:23:05;;;;;;;;;;;;;;;24.67;21.37;98174.78;5101855;28;19920;-85
2023/05/02 02:25:32;;;;;;;;;;;;;;;24.73;22.03;98178.66;5108980;28;19920;-85
2023/05/02 02:27:59;;;;;;;;;;;;;;;24.77;21.46;98167.38;5109409;28;20450;-85
2023/05/02 02:30:25;;;;;;;;;;;;;;;24.67;21.10;98173.97;5108960;28;19920;-84
2023/05/02 02:32:52;;;;;;;;;;;;;;;24.53;21.37;98163.06;5112340;28;20377;-85
2023/05/02 02:35:18;;;;;;;;;;;;;;;24.32;21.78;98163.56;5113864;28;19924;-85
2023/05/02 02:37:57;;;;;;;;;;;;;;;24.65;20.80;98168.00;5113513;28;19924;-85
2023/05/02 02:40:26;;;;;;;;;;;;;;;24.17;22.10;98162.28;5109730;28;19919;-85
2023/05/02 02:43:08;;;;;;;;;;;;;;;24.25;21.45;98167.28;5112466;28;19926;-85
2023/05/02 02:45:39;;;;;;;;;;;;;;;24.21;21.35;98160.97;5110865;28;19920;-85
2023/05/02 02:48:37;;;;;;;;;;;;;;;23.71;22.32;98163.94;5113150;28;19916;-85
2023/05/02 02:51:12;;;;;;;;;;;;;;;23.45;22.44;98167.66;5065066;28;20398;-85
2023/05/02 02:53:45;;;;;;;;;;;;;;;23.21;23.59;98168.84;5113603;28;19916;-85
2023/05/02 02:56:15;;;;;;;;;;;;;;;23.26;22.35;98171.16;5110969;28;19915;-85
2023/05/02 02:58:56;;;;;;;;;;;;;;;23.41;22.29;98168.94;5110976;28;19955;-84
2023/05/02 03:01:24;;;;;;;;;;;;;;;23.62;21.92;98176.97;5103298;28;19962;-85
2023/05/02 03:03:50;;;;;;;;;;;;;;;23.95;22.27;98173.09;5112967;28;19916;-84
2023/05/02 03:06:17;;;;;;;;;;;;;;;23.96;22.33;98169.09;5112567;28;19919;-84
2023/05/02 03:08:44;;;;;;;;;;;;;;;24.07;21.48;98169.69;5107523;28;19919;-85
2023/05/02 03:11:10;;;;;;;;;;;;;;;23.51;21.97;98177.16;5103751;28;19927;-85
2023/05/02 03:13:36;;;;;;;;;;;;;;;23.56;21.87;98171.06;5112278;28;19920;-85
2023/05/02 03:16:20;;;;;;;;;;;;;;;23.36;22.71;98187.81;5112660;28;19920;-85
2023/05/02 03:18:46;;;;;;;;;;;;;;;23.33;23.05;98199.06;5106435;28;19926;-85
2023/05/02 03:21:12;;;;;;;;;;;;;;;23.21;22.85;98194.84;5110451;28;19919;-85
2023/05/02 03:23:38;;;;;;;;;;;;;;;24.83;20.61;98190.91;5109708;28;20276;-84
2023/05/02 03:26:05;;;;;;;;;;;;;;;25.71;19.43;98196.38;5109523;28;19919;-84
2023/05/02 03:28:31;;;;;;;;;;;;;;;25.49;19.25;98200.94;5111921;28;19930;-85
2023/05/02 03:30:57;;;;;;;;;;;;;;;26.12;18.54;98198.47;5107676;28;19939;-84
2023/05/02 03:33:23;;;;;;;;;;;;;;;26.47;18.36;98208.69;5106795;28;19920;-84
2023/05/02 03:35:49;;;;;;;;;;;;;;;26.73;18.76;98204.69;5110141;28;19926;-84
2023/05/02 03:38:15;;;;;;;;;;;;;;;26.51;18.29;98206.59;5104149;28;20290;-85
2023/05/02 03:40:41;;;;;;;;;;;;;;;26.35;18.26;98201.03;5108694;28;20002;-85
2023/05/02 03:43:07;;;;;;;;;;;;;;;26.39;18.81;98202.50;5112930;28;19915;-85
2023/05/02 03:45:33;;;;;;;;;;;;;;;26.53;18.41;98213.34;5089065;28;19919;-85
2023/05/02 03:47:59;;;;;;;;;;;;;;;26.48;18.54;98211.09;5112016;28;19920;-84
2023/05/02 03:50:25;;;;;;;;;;;;;;;26.60;18.37;98207.50;5109700;28;19938;-85
2023/05/02 03:52:51;;;;;;;;;;;;;;;26.90;17.53;98206.22;5111312;28;19953;-85
2023/05/02 03:55:17;;;;;;;;;;;;;;;26.68;17.92;98202.44;5103787;28;20518;-85
2023/05/02 03:57:44;;;;;;;;;;;;;;;26.87;18.41;98209.91;5110440;28;19971;-85
2023/05/02 04:00:10;;;;;;;;;;;;;;;26.11;19.57;98203.31;5090218;28;19947;-84
2023/05/02 04:02:36;;;;;;;;;;;;;;;26.13;18.67;98202.88;5113630;28;20016;-84
2023/05/02 04:05:02;;;;;;;;;;;;;;;25.51;20.37;98204.91;5115245;28;19916;-85
2023/05/02 04:07:28;;;;;;;;;;;;;;;25.66;20.47;98202.53;5115014;28;19941;-85
2023/05/02 04:09:55;;;;;;;;;;;;;;;25.75;20.26;98202.69;5114818;28;20425;-85
2023/05/02 04:12:21;;;;;;;;;;;;;;;25.92;18.63;98207.84;5088149;28;20011;-85
2023/05/02 04:14:47;;;;;;;;;;;;;;;25.15;19.73;98207.81;5110055;28;20418;-85
2023/05/02 04:17:14;;;;;;;;;;;;;;;25.53;19.91;98202.47;5102570;28;19927;-85
2023/05/02 04:19:40;;;;;;;;;;;;;;;26.74;17.81;98195.00;5113495;28;19981;-85
2023/05/02 04:22:06;;;;;;;;;;;;;;;27.23;17.23;98195.50;5109364;28;20363;-84
2023/05/02 04:24:32;;;;;;;;;;;;;;;27.49;17.37;98199.88;5107040;28;19924;-86
2023/05/02 04:26:58;;;;;;;;;;;;;;;27.88;17.73;98195.69;5105707;28;19928;-85
2023/05/02 04:29:24;;;;;;;;;;;;;;;27.19;21.51;98204.03;5107523;28;19988;-85
2023/05/02 04:31:51;;;;;;;;;;;;;;;27.46;20.61;98211.28;5110563;28;19920;-86
2023/05/02 04:34:17;;;;;;;;;;;;;;;27.29;18.95;98204.94;5101403;28;19919;-83
2023/05/02 04:36:46;;;;;;;;;;;;;;;27.24;18.14;98199.88;5109347;28;19926;-85
2023/05/02 04:39:12;;;;;;;;;;;;;;;26.82;20.91;98210.47;5113167;28;19923;-84
2023/05/02 04:41:38;;;;;;;;;;;;;;;27.23;20.82;98201.13;5114450;28;19971;-85
2023/05/02 04:44:04;;;;;;;;;;;;;;;27.63;21.31;98193.75;5112737;28;19927;-85
2023/05/02 04:46:30;;;;;;;;;;;;;;;28.20;18.56;98200.19;5108446;28;20014;-85
2023/05/02 04:48:56;;;;;;;;;;;;;;;27.82;19.80;98198.31;5110441;28;20062;-85
2023/05/02 04:51:22;;;;;;;;;;;;;;;28.04;21.08;98201.19;5111659;28;19920;-85
2023/05/02 04:53:49;;;;;;;;;;;;;;;28.25;20.47;98208.09;5113094;28;19931;-84
2023/05/02 04:56:15;;;;;;;;;;;;;;;28.67;19.82;98200.88;5110797;28;19927;-84
2023/05/02 04:58:41;;;;;;;;;;;;;;;28.62;19.94;98213.56;5106856;28;19932;-83
2023/05/02 05:01:07;;;;;;;;;;;;;;;28.67;22.24;98210.13;5107294;28;19920;-83
2023/05/02 05:03:33;;;;;;;;;;;;;;;28.65;22.22;98211.84;5107099;28;19931;-84
2023/05/02 05:05:59;;;;;;;;;;;;;;;28.86;22.22;98211.03;5109468;28;19920;-84
2023/05/02 05:08:26;;;;;;;;;;;;;;;29.18;19.78;98206.94;5107672;28;20385;-88
2023/05/02 05:10:52;;;;;;;;;;;;;;;29.21;20.60;98208.84;5109602;28;20403;-85
2023/05/02 05:13:18;;;;;;;;;;;;;;;29.07;20.45;98204.53;5077981;28;20030;-84
2023/05/02 05:15:44;;;;;;;;;;;;;;;29.29;20.50;98202.41;5107452;28;19927;-84
2023/05/02 05:18:10;;;;;;;;;;;;;;;29.27;20.83;98202.09;5107895;28;20444;-84
2023/05/02 05:20:36;;;;;;;;;;;;;;;29.33;20.37;98208.72;5111020;28;19920;-83
2023/05/02 05:23:02;;;;;;;;;;;;;;;29.32;22.62;98212.81;5112002;28;20386;-83
2023/05/02 05:25:28;;;;;;;;;;;;;;;29.85;19.78;98210.56;5107146;28;20393;-83
2023/05/02 05:27:55;;;;;;;;;;;;;;;29.76;19.30;98204.09;5109555;28;19967;-83
2023/05/02 05:30:21;;;;;;;;;;;;;;;29.97;21.07;98203.97;5106735;28;19965;-83
2023/05/02 05:32:47;;;;;;;;;;;;;;;30.15;20.21;98211.69;5111887;28;19924;-83
2023/05/02 05:35:13;;;;;;;;;;;;;;;29.97;20.88;98211.69;5103187;28;20710;-83
2023/05/02 05:37:39;;;;;;;;;;;;;;;30.12;19.19;98206.97;5109198;28;19920;-83
2023/05/02 05:40:06;;;;;;;;;;;;;;;30.13;20.75;98213.44;5088860;28;19920;-83
2023/05/02 05:42:32;;;;;;;;;;;;;;;30.54;21.58;98213.56;5106083;28;19958;-83
2023/05/02 05:44:58;;;;;;;;;;;;;;;30.98;19.40;98216.00;5086784;28;19984;-83
2023/05/02 05:47:24;;;;;;;;;;;;;;;30.60;20.13;98208.03;5103334;28;19955;-84
2023/05/02 05:49:54;;;;;;;;;;;;;;;30.57;19.29;98217.50;5108441;28;19966;-84
2023/05/02 05:52:20;;;;;;;;;;;;;;;30.40;20.01;98224.78;5106884;28;20379;-84
2023/05/02 05:54:46;;;;;;;;;;;;;;;30.27;20.02;98224.13;5112352;28;19926;-84
2023/05/02 05:57:12;;;;;;;;;;;;;;;30.45;20.61;98224.94;5107623;28;19924;-85
2023/05/02 05:59:38;;;;;;;;;;;;;;;30.85;21.11;98221.06;5103466;28;20435;-84
2023/05/02 06:02:05;;;;;;;;;;;;;;;31.26;19.31;98231.66;5110248;28;20033;-84
2023/05/02 06:04:31;;;;;;;;;;;;;;;31.72;20.52;98227.31;5113057;28;19984;-84
2023/05/02 06:06:57;;;;;;;;;;;;;;;31.96;20.18;98228.13;5112207;28;20290;-83
2023/05/02 06:09:23;;;;;;;;;;;;;;;31.93;19.60;98220.53;5112293;28;19927;-83
2023/05/02 06:11:49;;;;;;;;;;;;;;;32.14;19.69;98227.19;5104809;28;19947;-83
2023/05/02 06:14:15;;;;;;;;;;;;;;;32.26;19.46;98217.63;5113084;28;20414;-83
2023/05/02 06:16:41;;;;;;;;;;;;;;;32.20;20.02;98225.25;5109512;28;19963;-83
2023/05/02 06:19:07;;;;;;;;;;;;;;;32.06;19.80;98226.81;5107366;28;19922;-83
2023/05/02 06:21:37;;;;;;;;;;;;;;;31.95;19.84;98231.44;5110511;28;19919;-83
2023/05/02 06:24:03;;;;;;;;;;;;;;;32.27;20.17;98226.94;5111690;28;20010;-83
2023/05/02 06:26:29;;;;;;;;;;;;;;;32.60;19.61;98233.31;5111071;28;19920;-83
2023/05/02 06:28:55;;;;;;;;;;;;;;;32.70;18.93;98235.53;5111807;28;19998;-84
2023/05/02 06:31:21;;;;;;;;;;;;;;;32.66;19.67;98237.81;5108169;28;20022;-83
2023/05/02 06:33:47;;;;;;;;;;;;;;;32.79;20.07;98233.91;5112272;28;19977;-83
2023/05/02 06:36:13;;;;;;;;;;;;;;;32.99;20.90;98245.34;5111166;28;20328;-83
2023/05/02 06:38:39;;;;;;;;;;;;;;;32.86;18.48;98244.88;5090378;28;19919;-83
2023/05/02 06:41:05;;;;;;;;;;;;;;;32.34;18.72;98254.97;5113241;28;19923;-83
2023/05/02 06:43:34;;;;;;;;;;;;;;;32.46;21.18;98245.41;5113235;28;20397;-84
2023/05/02 06:46:00;;;;;;;;;;;;;;;32.43;20.23;98252.06;5101614;28;19926;-83
2023/05/02 06:48:26;;;;;;;;;;;;;;;32.17;19.56;98253.84;5111499;28;19924;-83
2023/05/02 06:50:53;;;;;;;;;;;;;;;32.40;21.42;98256.66;5112344;28;20022;-83
2023/05/02 06:53:19;;;;;;;;;;;;;;;32.54;19.65;98255.94;5112971;28;19927;-83
2023/05/02 06:55:45;;;;;;;;;;;;;;;32.43;19.05;98252.84;5112629;28;19926;-84
2023/05/02 06:58:11;;;;;;;;;;;;;;;32.40;19.73;98258.72;5112494;28;20027;-83
2023/05/02 07:00:37;;;;;;;;;;;;;;;32.33;19.35;98262.72;5113371;28;19919;-83
2023/05/02 07:03:03;;;;;;;;;;;;;;;32.18;19.47;98259.06;5112163;28;19942;-83
2023/05/02 07:05:30;;;;;;;;;;;;;;;32.32;19.51;98264.00;5112595;28;19919;-83
2023/05/02 07:07:56;;;;;;;;;;;;;;;32.52;20.28;98261.31;5109533;28;19912;-84
2023/05/02 07:10:22;;;;;;;;;;;;;;;32.66;20.08;98263.41;5107108;28;20077;-85
2023/05/02 07:12:48;;;;;;;;;;;;;;;32.77;20.20;98259.19;5111229;28;19919;-84
2023/05/02 07:15:15;;;;;;;;;;;;;;;32.75;19.80;98260.47;5094790;28;20006;-85
2023/05/02 07:17:42;;;;;;;;;;;;;;;32.71;18.76;98259.09;5106476;28;20394;-85
2023/05/02 07:20:09;;;;;;;;;;;;;;;32.59;20.40;98258.09;5096797;28;19920;-85
2023/05/02 07:22:35;;;;;;;;;;;;;;;32.77;19.28;98262.81;5103458;28;19955;-85
2023/05/02 07:25:01;;;;;;;;;;;;;;;32.88;18.94;98260.19;5106417;28;19935;-85
2023/05/02 07:27:27;;;;;;;;;;;;;;;32.68;20.11;98265.75;5093761;28;20039;-85
2023/05/02 07:29:53;;;;;;;;;;;;;;;32.62;19.47;98268.50;5111291;28;19924;-85
2023/05/02 07:32:24;;;;;;;;;;;;;;;32.57;19.18;98268.38;5112931;28;20295;-84
2023/05/02 07:34:53;;;;;;;;;;;;;;;32.55;20.34;98271.72;5113861;28;20002;-85
2023/05/02 07:37:20;;;;;;;;;;;;;;;32.70;19.79;98266.84;5116554;28;19961;-85
2023/05/02 07:39:46;;;;;;;;;;;;;;;32.64;20.11;98259.47;5116773;28;19926;-84
2023/05/02 07:42:12;;;;;;;;;;;;;;;32.66;19.27;98273.97;5115321;28;19926;-84
2023/05/02 07:44:38;;;;;;;;;;;;;;;32.21;20.41;98274.38;5112909;28;20014;-85
2023/05/02 07:47:04;;;;;;;;;;;;;;;32.23;20.68;98274.66;5103325;28;20354;-85
2023/05/02 07:49:30;;;;;;;;;;;;;;;32.10;20.43;98274.91;5106581;28;19916;-86
2023/05/02 07:51:57;;;;;;;;;;;;;;;32.16;19.79;98269.34;5104162;28;19920;-83
2023/05/02 07:54:25;;;;;;;;;;;;;;;31.71;19.84;98285.38;5108927;28;19915;-83
2023/05/02 07:56:51;;;;;;;;;;;;;;;31.53;20.26;98284.69;5111766;28;19924;-84
2023/05/02 07:59:17;;;;;;;;;;;;;;;31.43;20.58;98283.94;5098150;28;20128;-84
2023/05/02 08:01:43;;;;;;;;;;;;;;;31.68;21.79;98283.50;5115811;28;19963;-84
2023/05/02 08:04:10;;;;;;;;;;;;;;;31.92;21.35;98290.00;5117075;28;19923;-83
2023/05/02 08:06:36;;;;;;;;;;;;;;;32.18;21.52;98293.16;5116813;28;19916;-85
2023/05/02 08:09:02;;;;;;;;;;;;;;;32.53;21.08;98288.50;5114915;28;20008;-85
2023/05/02 08:11:28;;;;;;;;;;;;;;;32.49;22.46;98287.06;5095368;28;20024;-84
2023/05/02 08:13:54;;;;;;;;;;;;;;;32.69;22.15;98287.22;5114793;28;19919;-84
2023/05/02 08:16:21;;;;;;;;;;;;;;;32.76;20.97;98286.84;5114253;28;19959;-84
2023/05/02 08:18:47;;;;;;;;;;;;;;;32.83;21.95;98288.53;5114487;28;20290;-84
2023/05/02 08:21:13;;;;;;;;;;;;;;;32.95;20.66;98287.44;5109070;28;19988;-84
2023/05/02 08:23:40;;;;;;;;;;;;;;;32.81;21.12;98291.88;5109317;28;20363;-85
2023/05/02 08:26:06;;;;;;;;;;;;;;;32.85;21.92;98289.59;5115636;28;19955;-86
2023/05/02 08:28:32;;;;;;;;;;;;;;;33.28;22.39;98293.75;5117207;28;19924;-86
2023/05/02 08:30:58;;;;;;;;;;;;;;;33.60;21.70;98300.50;5105461;28;20390;-86
2023/05/02 08:33:25;;;;;;;;;;;;;;;33.74;20.30;98302.53;5110685;28;19919;-84
2023/05/02 08:35:51;;;;;;;;;;;;;;;33.89;22.32;98300.41;5114016;28;19920;-84
2023/05/02 08:38:18;;;;;;;;;;;;;;;34.14;22.38;98299.78;5113402;28;19946;-84
2023/05/02 08:40:44;;;;;;;;;;;;;;;34.24;20.77;98294.72;5112269;28;19923;-84
2023/05/02 08:43:10;;;;;;;;;;;;;;;34.05;20.76;98292.13;5100119;28;20330;-87
2023/05/02 08:45:40;;;;;;;;;;;;;;;34.28;21.36;98289.56;5110893;28;19928;-84
2023/05/02 08:48:09;;;;;;;;;;;;;;;34.61;21.63;98284.31;5105988;28;19928;-85
2023/05/02 08:50:36;;;;;;;;;;;;;;;34.69;21.56;98288.25;5112368;28;20619;-84
2023/05/02 08:53:03;;;;;;;;;;;;;;;34.89;20.18;98287.44;5103613;28;20360;-83
2023/05/02 08:55:29;;;;;;;;;;;;;;;34.52;20.85;98285.22;5095994;28;19924;-84
2023/05/02 08:57:58;;;;;;;;;;;;;;;34.42;20.75;98280.94;5102215;28;19932;-85
2023/05/02 09:00:25;;;;;;;;;;;;;;;34.86;21.54;98283.53;5089182;28;19945;-85
2023/05/02 09:03:03;;;;;;;;;;;;;;;35.15;20.74;98279.69;5102259;28;19932;-84
2023/05/02 09:05:32;;;;;;;;;;;;;;;35.18;19.76;98276.59;5099411;28;19935;-84
2023/05/02 09:07:58;;;;;;;;;;;;;;;35.06;20.78;98268.41;5099839;28;19930;-83
2023/05/02 09:10:25;;;;;;;;;;;;;;;35.15;21.40;98271.13;5099995;28;19920;-83
2023/05/02 09:12:51;;;;;;;;;;;;;;;35.14;20.88;98269.53;5099199;28;20371;-84
2023/05/02 09:15:18;;;;;;;;;;;;;;;34.99;19.98;98266.00;5098896;28;19916;-83
2023/05/02 09:17:45;;;;;;;;;;;;;;;34.78;20.68;98278.75;5101880;28;20360;-85
2023/05/02 09:20:12;;;;;;;;;;;;;;;34.77;20.11;98280.06;5109718;28;20294;-85
2023/05/02 09:22:39;;;;;;;;;;;;;;;34.56;20.62;98277.25;5098904;28;19924;-84
2023/05/02 09:25:05;;;;;;;;;;;;;;;34.12;21.11;98281.59;5096056;28;19920;-83
2023/05/02 09:27:50;;;;;;;;;;;;;;;33.98;20.89;98274.66;5099471;28;19932;-83
2023/05/02 09:30:20;;;;;;;;;;;;;;;33.92;21.88;98290.88;5099549;28;19928;-84
2023/05/02 09:32:47;;;;;;;;;;;;;;;33.97;20.72;98287.31;5109960;28;19958;-84
2023/05/02 09:35:22;;;;;;;;;;;;;;;34.17;20.61;98287.34;5101041;28;20002;-84
2023/05/02 09:37:51;;;;;;;;;;;;;;;34.18;19.58;98283.22;5110416;28;19974;-83
2023/05/02 09:40:18;;;;;;;;;;;;;;;33.96;22.03;98291.44;5103508;28;19919;-84
2023/05/02 09:42:44;;;;;;;;;;;;;;;34.31;19.98;98288.59;5112352;28;19920;-84
2023/05/02 09:45:18;;;;;;;;;;;;;;;34.25;20.01;98285.66;5105542;28;20329;-84
2023/05/02 09:47:44;;;;;;;;;;;;;;;33.96;21.04;98277.19;5107199;28;19916;-83
2023/05/02 09:50:10;;;;;;;;;;;;;;;34.15;21.88;98275.66;5109403;28;20041;-83
2023/05/02 09:52:36;;;;;;;;;;;;;;;34.59;20.03;98276.22;5109547;28;19998;-85
2023/05/02 09:55:18;;;;;;;;;;;;;;;34.10;20.74;98269.91;5107797;28;19933;-84
2023/05/02 09:57:45;;;;;;;;;;;;;;;34.68;21.48;98272.44;5110451;28;20035;-84
2023/05/02 10:00:13;;;;;;;;;;;;;;;35.29;21.05;98270.16;5107410;28;19920;-84
2023/05/02 10:02:41;;;;;;;;;;;;;;;35.31;21.27;98265.53;5109184;28;20321;-84
2023/05/02 10:05:09;;;;;;;;;;;;;;;34.67;18.93;98268.00;5105355;28;19971;-85
2023/05/02 10:07:36;;;;;;;;;;;;;;;34.02;20.83;98258.91;5100811;28;19977;-84
2023/05/02 10:10:02;;;;;;;;;;;;;;;34.19;20.40;98259.16;5094531;28;20402;-84
2023/05/02 10:12:29;;;;;;;;;;;;;;;34.62;20.56;98263.81;5098430;28;19924;-84
2023/05/02 10:14:59;;;;;;;;;;;;;;;34.87;21.05;98265.09;5101731;28;19962;-83
2023/05/02 10:17:30;;;;;;;;;;;;;;;35.14;19.95;98258.91;5096614;28;20326;-82
2023/05/02 10:19:59;;;;;;;;;;;;;;;34.72;20.37;98259.53;5102286;28;19920;-84
2023/05/02 10:22:25;;;;;;;;;;;;;;;34.78;21.28;98261.63;5099556;28;20316;-83
2023/05/02 10:24:52;;;;;;;;;;;;;;;35.28;20.98;98265.75;5097967;28;19980;-83
2023/05/02 10:29:50;;;;;;;;;;;;;;;35.47;20.52;98266.97;4968554;28;19925;-82
2023/05/02 10:32:17;;;;;;;;;;;;;;;35.67;20.88;98254.63;4987738;28;19944;-83
2023/05/02 10:34:45;;;;;;;;;;;;;;;35.74;19.95;98254.94;4984204;28;19931;-83
2023/05/02 10:37:11;;;;;;;;;;;;;;;35.79;20.18;98257.06;4990146;28;19922;-83
2023/05/02 10:39:37;;;;;;;;;;;;;;;36.02;22.29;98264.50;4987048;28;20380;-83
2023/05/02 10:42:05;;;;;;;;;;;;;;;36.19;20.62;98267.44;4991065;28;20356;-83
2023/05/02 10:44:31;;;;;;;;;;;;;;;36.21;19.31;98255.47;4995705;28;20324;-83
2023/05/02 10:46:58;;;;;;;;;;;;;;;36.16;20.43;98261.94;4994154;28;20016;-83
2023/05/02 10:49:26;;;;;;;;;;;;;;;35.93;20.42;98267.53;4998439;28;19926;-83
2023/05/02 10:51:52;;;;;;;;;;;;;;;35.13;18.77;98271.59;4994791;28;19921;-83
2023/05/02 10:54:21;;;;;;;;;;;;;;;35.25;20.05;98273.28;4995208;28;19922;-83
2023/05/02 10:57:04;;;;;;;;;;;;;;;35.44;20.11;98250.81;4991349;28;19934;-83
2023/05/02 10:59:34;;;;;;;;;;;;;;;35.24;19.02;98253.81;4992697;28;19929;-85
2023/05/02 11:02:00;;;;;;;;;;;;;;;35.10;19.09;98254.72;4992822;28;19917;-84
2023/05/02 11:04:45;;;;;;;;;;;;;;;34.84;20.09;98248.22;4986465;28;20301;-83
2023/05/02 11:07:16;;;;;;;;;;;;;;;34.63;18.19;98247.50;4989179;28;19922;-83
2023/05/02 11:09:42;;;;;;;;;;;;;;;34.95;20.02;98245.47;4990325;28;19992;-85
2023/05/02 11:12:08;;;;;;;;;;;;;;;35.36;19.97;98238.28;4993919;28;19918;-83
2023/05/02 11:14:37;;;;;;;;;;;;;;;35.89;20.82;98247.00;4988476;28;20443;-83
2023/05/02 11:17:03;;;;;;;;;;;;;;;36.57;18.05;98235.34;4990506;28;20167;-83
2023/05/02 11:19:50;;;;;;;;;;;;;;;36.36;17.61;98230.31;4985065;28;19922;-84
2023/05/02 11:22:16;;;;;;;;;;;;;;;36.29;18.26;98239.41;4989556;28;19926;-84
2023/05/02 11:24:43;;;;;;;;;;;;;;;35.40;16.85;98233.16;4988774;28;19964;-83
2023/05/02 11:27:28;;;;;;;;;;;;;;;35.28;19.22;98242.91;4990202;28;19973;-84
2023/05/02 11:29:54;;;;;;;;;;;;;;;35.10;17.43;98257.56;4986752;28;20407;-84
2023/05/02 11:32:21;;;;;;;;;;;;;;;35.13;19.78;98259.41;4990358;28;20008;-82
2023/05/02 11:34:51;;;;;;;;;;;;;;;34.98;20.04;98273.00;4992030;28;20304;-84
2023/05/02 11:37:18;;;;;;;;;;;;;;;35.05;19.79;98273.38;4996544;28;19929;-83
2023/05/02 11:39:45;;;;;;;;;;;;;;;35.18;19.18;98276.59;4996181;28;20436;-84
2023/05/02 11:42:28;;;;;;;;;;;;;;;35.25;19.63;98270.41;4987839;28;20362;-84
2023/05/02 11:44:57;;;;;;;;;;;;;;;35.13;20.02;98256.53;4981048;28;19969;-83
2023/05/02 11:47:24;;;;;;;;;;;;;;;35.67;20.10;98260.34;4979919;28;19961;-83
2023/05/02 11:49:50;;;;;;;;;;;;;;;36.32;19.51;98253.44;4983605;28;20483;-83
2023/05/02 11:52:16;;;;;;;;;;;;;;;36.77;20.10;98250.72;4969412;28;19926;-83
2023/05/02 11:54:42;;;;;;;;;;;;;;;37.25;19.72;98246.38;5004354;28;20000;-84
2023/05/02 11:57:08;;;;;;;;;;;;;;;37.17;17.68;98241.69;4986841;28;19933;-83
2023/05/02 11:59:53;;;;;;;;;;;;;;;37.10;18.80;98243.00;4993310;28;19921;-81
2023/05/02 12:02:33;;;;;;;;;;;;;;;36.99;19.15;98240.13;4974519;28;20332;-82
2023/05/02 12:05:00;;;;;;;;;;;;;;;37.22;18.48;98232.31;4991934;28;19930;-82
2023/05/02 12:07:33;;;;;;;;;;;;;;;36.87;18.48;98240.59;4982459;28;19966;-82
2023/05/02 12:09:59;;;;;;;;;;;;;;;36.84;19.77;98253.88;4988268;28;20396;-82
2023/05/02 12:12:25;;;;;;;;;;;;;;;36.84;19.91;98255.94;4992656;28;19918;-84
2023/05/02 12:14:51;;;;;;;;;;;;;;;36.51;19.01;98251.72;4990122;28;19976;-83
2023/05/02 12:17:17;;;;;;;;;;;;;;;36.27;20.32;98270.59;4989248;28;20009;-83
2023/05/02 12:19:43;;;;;;;;;;;;;;;35.69;18.50;98277.78;4991531;28;19922;-84
2023/05/02 12:22:10;;;;;;;;;;;;;;;34.74;20.51;98278.97;4983238;28;20037;-83
2023/05/02 12:24:36;;;;;;;;;;;;;;;34.23;20.21;98288.22;4989598;28;19926;-83
2023/05/02 12:27:12;;;;;;;;;;;;;;;33.85;20.86;98299.84;4981584;28;19972;-83
2023/05/02 12:29:39;;;;;;;;;;;;;;;33.38;19.59;98306.59;4986733;28;19976;-83
2023/05/02 12:32:06;;;;;;;;;;;;;;;32.56;22.79;98326.50;4987851;28;19972;-83
2023/05/02 12:34:32;;;;;;;;;;;;;;;32.99;21.61;98342.88;4993627;28;19933;-82
2023/05/02 12:36:58;;;;;;;;;;;;;;;32.71;22.04;98350.88;4991666;28;19948;-83
2023/05/02 12:39:36;;;;;;;;;;;;;;;32.06;22.28;98360.31;4993355;28;19917;-83
2023/05/02 12:42:12;;;;;;;;;;;;;;;31.89;20.62;98339.25;4984873;28;20029;-83
2023/05/02 12:44:39;;;;;;;;;;;;;;;32.09;19.93;98345.13;4986081;28;19921;-83
2023/05/02 12:47:06;;;;;;;;;;;;;;;31.79;21.06;98331.22;4993408;28;19926;-82
2023/05/02 12:49:32;;;;;;;;;;;;;;;32.29;21.91;98318.97;4994396;28;19956;-83
2023/05/02 12:51:59;;;;;;;;;;;;;;;31.69;25.23;98333.34;4988613;28;19999;-84
2023/05/02 12:54:25;;;;;;;;;;;;;;;30.48;28.75;98325.97;4985111;28;19937;-82